Time;durP1;ratioP1;P1;durP2;ratioP2;P2;SDS_P1;SDS_P2;PMS_P1;PMS_P2;Temp;Humidity;BMP_temperature;BMP_pressure;BME280_temperature;BME280_humidity;BME280_pressure;Samples;Min_cycle;Max_cycle;Signal;HPM_P1;HPM_P2
2023/01/06 00:00:44;;;;;;;10.28;7.33;;;;;;;7.18;88.61;99545.06;1751184;80;20928;-88
2023/01/06 08:21:16;;;;;;;2.98;2.75;;;;;;;7.57;94.15;99900.03;1812972;77;22777;-91
2023/01/06 08:23:47;;;;;;;4.67;3.30;;;;;;;7.46;94.05;99902.79;1787630;80;20875;-90
2023/01/06 08:26:15;;;;;;;3.45;2.77;;;;;;;7.43;94.21;99902.98;1752686;80;22163;-92
2023/01/06 08:28:42;;;;;;;3.15;2.80;;;;;;;7.40;94.06;99901.00;1752968;82;20912;-90
2023/01/06 08:31:14;;;;;;;3.40;2.40;;;;;;;7.39;94.26;99900.64;1752634;80;21362;-87
2023/01/06 08:33:40;;;;;;;2.15;2.02;;;;;;;7.38;94.32;99905.47;1752667;80;20931;-90
2023/01/06 08:36:08;;;;;;;2.35;2.15;;;;;;;7.37;94.26;99911.63;1752814;82;20920;-90
2023/01/06 08:38:35;;;;;;;3.55;3.25;;;;;;;7.35;94.54;99914.31;1752666;80;21162;-90
2023/01/06 08:41:02;;;;;;;2.25;1.80;;;;;;;7.35;94.53;99944.31;1752825;80;20865;-94
2023/01/06 08:43:30;;;;;;;0.80;0.70;;;;;;;7.28;94.19;99957.80;1753913;80;20943;-88
2023/01/06 08:46:02;;;;;;;2.45;0.98;;;;;;;7.14;91.96;99958.13;1753238;82;20936;-94
2023/01/06 08:48:29;;;;;;;0.98;0.70;;;;;;;6.97;90.55;99971.26;1752990;82;20908;-93
2023/01/06 08:51:02;;;;;;;3.05;0.45;;;;;;;6.81;89.19;99969.49;1752795;82;21924;-87
2023/01/06 08:53:29;;;;;;;0.72;0.30;;;;;;;6.61;88.13;99971.88;1732512;80;20892;-92
2023/01/06 08:55:55;;;;;;;0.40;0.40;;;;;;;6.36;87.83;99982.78;1752707;80;20915;-90
2023/01/06 08:58:22;;;;;;;0.33;0.33;;;;;;;6.19;88.24;99980.21;1752601;82;21327;-91
2023/01/06 09:00:48;;;;;;;0.68;0.53;;;;;;;6.08;88.30;99989.05;1752742;80;20948;-91
2023/01/06 09:03:15;;;;;;;0.60;0.40;;;;;;;5.99;88.35;99996.86;1752628;82;21086;-92
2023/01/06 09:05:41;;;;;;;2.55;1.98;;;;;;;5.91;88.50;100002.87;1752677;82;20896;-91
2023/01/06 09:08:08;;;;;;;1.65;1.55;;;;;;;5.87;88.88;100006.55;1752767;82;21506;-91
2023/01/06 09:10:38;;;;;;;21.73;15.32;;;;;;;5.83;89.00;100009.78;1752756;82;20864;-89
2023/01/06 09:13:04;;;;;;;4.60;3.22;;;;;;;5.81;89.14;100020.72;1752758;82;20888;-90
2023/01/06 09:15:31;;;;;;;11.03;7.62;;;;;;;5.78;89.28;100023.02;1752647;82;21274;-91
2023/01/06 09:17:58;;;;;;;2.52;1.92;;;;;;;5.78;88.97;100029.52;1754186;78;20948;-89
2023/01/06 09:20:24;;;;;;;1.30;1.20;;;;;;;5.73;88.45;100031.95;1762856;77;21117;-89
2023/01/06 09:22:51;;;;;;;1.67;1.55;;;;;;;5.69;88.19;100042.12;1767905;81;20930;-89
2023/01/06 09:25:20;;;;;;;2.10;1.90;;;;;;;5.66;88.34;100036.62;1729495;83;20947;-90
2023/01/06 09:27:46;;;;;;;1.27;1.20;;;;;;;5.66;87.96;100051.39;1728703;83;21128;-89
2023/01/06 09:30:13;;;;;;;1.35;1.17;;;;;;;5.60;87.78;100053.38;1727593;83;20916;-89
2023/01/06 09:32:41;;;;;;;1.60;1.32;;;;;;;5.59;87.87;100050.37;1727748;83;20911;-88
2023/01/06 09:35:09;;;;;;;1.55;1.40;;;;;;;5.60;87.95;100061.62;1727942;82;20912;-91
2023/01/06 09:37:35;;;;;;;1.75;1.65;;;;;;;5.57;87.43;100059.18;1727108;83;20935;-91
2023/01/06 09:40:03;;;;;;;1.27;1.17;;;;;;;5.50;86.59;100070.80;1726785;83;21163;-91
2023/01/06 09:42:56;;;;;;;1.17;1.07;;;;;;;5.38;86.39;100073.50;1726934;83;20951;-90
2023/01/06 09:45:34;;;;;;;1.47;1.37;;;;;;;5.25;86.15;100081.52;1727100;83;21373;-90
2023/01/06 09:48:02;;;;;;;1.92;1.20;;;;;;;5.14;85.83;100087.22;1726934;82;20907;-91
2023/01/06 09:50:37;;;;;;;1.22;1.12;;;;;;;5.06;85.54;100095.34;1727134;83;20955;-91
2023/01/06 09:53:22;;;;;;;1.47;1.37;;;;;;;5.01;85.63;100100.38;1728336;82;21150;-89
2023/01/06 09:55:56;;;;;;;1.27;1.17;;;;;;;4.94;85.48;100104.55;1721915;83;20960;-91
2023/01/06 09:58:40;;;;;;;1.72;1.62;;;;;;;4.87;85.23;100092.75;1727327;83;20986;-88
2023/01/06 10:01:14;;;;;;;1.82;1.72;;;;;;;4.77;85.13;100110.48;1726927;82;21558;-90
2023/01/06 10:03:42;;;;;;;2.37;2.00;;;;;;;4.68;85.31;100105.70;1727073;82;20939;-92
2023/01/06 10:06:32;;;;;;;2.25;1.70;;;;;;;4.54;85.58;100113.27;1727008;83;21140;-90
2023/01/06 10:09:35;;;;;;;1.80;1.70;;;;;;;4.47;85.82;100126.97;1727209;83;21006;-89
2023/01/06 10:12:44;;;;;;;1.65;1.55;;;;;;;4.39;86.10;100129.49;1727203;83;21404;-89
2023/01/06 10:15:39;;;;;;;1.62;1.52;;;;;;;4.29;86.43;100127.30;1624726;86;20961;-90
2023/01/06 10:18:51;;;;;;;2.40;2.30;;;;;;;4.24;86.52;100130.51;1713383;83;21027;-88
2023/01/06 14:49:48;;;;;;;3.40;3.10;;;;;;;-0.33;77.86;100765.28;1815899;76;21038;-91
2023/01/06 14:52:25;;;;;;;4.00;2.42;;;;;;;-0.40;76.72;100782.98;1809327;76;20994;-90
2023/01/06 14:54:53;;;;;;;3.92;3.00;;;;;;;-0.48;76.63;100780.48;1815217;76;20923;-92
2023/01/06 14:57:26;;;;;;;2.75;2.10;;;;;;;-0.52;76.77;100789.56;1797308;79;22871;-90
2023/01/06 15:00:17;;;;;;;3.25;2.67;;;;;;;-0.57;76.74;100796.05;1789988;77;20908;-90
2023/01/06 15:02:50;;;;;;;4.25;2.90;;;;;;;-0.54;77.07;100803.73;1793965;77;20872;-92
2023/01/06 15:05:36;;;;;;;3.75;3.35;;;;;;;-0.49;77.50;100815.27;1798993;77;21476;-91
2023/01/06 15:08:12;;;;;;;3.72;2.45;;;;;;;-0.42;77.74;100824.66;1788013;77;20911;-89
2023/01/06 15:10:43;;;;;;;6.50;2.65;;;;;;;-0.37;77.93;100839.63;1802797;78;20803;-91
2023/01/06 15:13:31;;;;;;;4.25;2.42;;;;;;;-0.37;77.63;100837.05;1771642;75;21139;-91
2023/01/06 15:16:06;;;;;;;5.58;2.52;;;;;;;-0.42;76.48;100831.95;1765053;79;21127;-90
2023/01/06 15:18:34;;;;;;;2.40;2.20;;;;;;;-0.49;76.05;100835.88;1751977;79;20952;-89
2023/01/06 15:21:01;;;;;;;2.92;2.52;;;;;;;-0.61;74.43;100850.19;1768159;79;20917;-89
2023/01/06 15:23:28;;;;;;;2.35;2.05;;;;;;;-0.72;73.90;100869.61;1742918;80;20972;-91
2023/01/06 15:25:56;;;;;;;3.77;2.90;;;;;;;-0.77;74.06;100874.80;1762380;79;20945;-92
2023/01/06 15:28:34;;;;;;;3.58;2.62;;;;;;;-0.79;73.94;100880.84;1772210;79;21293;-92
2023/01/06 15:31:04;;;;;;;2.37;1.85;;;;;;;-0.79;74.24;100880.84;1747666;79;21029;-91
2023/01/06 15:33:39;;;;;;;3.60;2.17;;;;;;;-0.79;74.32;100882.13;1777727;79;20909;-92
2023/01/06 15:36:07;;;;;;;4.25;2.17;;;;;;;-0.79;74.70;100891.13;1769785;79;20973;-91
2023/01/06 15:38:35;;;;;;;2.75;2.20;;;;;;;-0.74;75.23;100898.37;1767832;79;21444;-91
2023/01/06 15:41:02;;;;;;;3.22;2.47;;;;;;;-0.68;75.34;100904.33;1740358;80;21244;-91
2023/01/06 15:43:39;;;;;;;5.15;2.65;;;;;;;-0.65;75.06;100920.17;1745568;79;21058;-90
2023/01/06 15:46:08;;;;;;;3.70;2.75;;;;;;;-0.63;75.06;100937.76;1747683;79;20914;-88
2023/01/06 15:48:36;;;;;;;71.65;41.53;;;;;;;-0.63;74.77;100950.64;1758417;79;20900;-89
2023/01/06 15:51:15;;;;;;;17.27;9.20;;;;;;;-0.65;73.95;100949.35;1758950;79;20849;-91
2023/01/06 15:53:42;;;;;;;11.68;6.65;;;;;;;-0.67;73.61;100951.52;1769383;79;21167;-90
2023/01/06 15:56:20;;;;;;;9.08;5.35;;;;;;;;;;1764487;79;20942;-90
2023/01/06 15:58:48;;;;;;;2.77;2.40;;;;;;;-0.65;72.69;100966.09;1761297;79;21626;-89
2023/01/06 16:01:18;;;;;;;3.75;2.70;;;;;;;-0.64;72.37;100960.09;1774035;80;21010;-89
2023/01/06 16:03:50;;;;;;;3.10;2.27;;;;;;;-0.62;71.49;100958.80;1754950;79;21557;-90
2023/01/06 16:06:36;;;;;;;5.87;2.77;;;;;;;-0.62;71.55;100972.97;1783650;80;21245;-89
2023/01/06 16:09:25;;;;;;;6.22;2.98;;;;;;;-0.61;71.33;100978.96;1767965;79;20980;-90
2023/01/06 16:12:12;;;;;;;8.03;3.60;;;;;;;-0.65;71.46;100984.12;1766415;79;20957;-89
2023/01/06 16:14:42;;;;;;;5.10;2.62;;;;;;;-0.60;71.88;100992.25;1769618;80;20960;-88
2023/01/06 16:17:30;;;;;;;5.65;2.83;;;;;;;-0.54;71.77;100985.33;1758012;79;20981;-88
2023/01/06 16:20:03;;;;;;;3.42;2.40;;;;;;;-0.50;71.41;100993.89;1771543;80;21248;-89
2023/01/06 16:22:43;;;;;;;4.37;2.40;;;;;;;-0.51;69.61;100996.03;1769577;79;20848;-92
2023/01/06 16:25:31;;;;;;;3.33;2.08;;;;;;;-0.59;68.89;100999.97;1762247;80;21045;-91
2023/01/06 16:28:02;;;;;;;3.72;2.65;;;;;;;-0.65;68.42;101005.16;1766121;79;21181;-93
2023/01/06 16:30:35;;;;;;;3.83;2.02;;;;;;;-0.71;68.60;101009.95;1784790;79;20936;-92
2023/01/06 16:33:02;;;;;;;7.10;3.22;;;;;;;-0.70;69.27;101009.06;1759449;79;21176;-91
2023/01/06 16:35:32;;;;;;;4.40;2.50;;;;;;;-0.65;68.19;101016.75;1755395;79;21022;-93
2023/01/06 16:37:59;;;;;;;3.12;1.82;;;;;;;-0.72;66.86;101020.24;1763507;79;21048;-92
2023/01/06 16:40:29;;;;;;;2.85;1.75;;;;;;;-0.81;65.96;101022.89;1780520;79;21047;-93
2023/01/06 16:43:01;;;;;;;3.52;2.45;;;;;;;-0.90;65.75;101026.38;1746437;80;21052;-91
2023/01/06 16:45:41;;;;;;;3.80;3.02;;;;;;;-1.00;66.11;101035.00;1788235;79;20889;-93
2023/01/06 16:48:16;;;;;;;2.65;1.95;;;;;;;-1.05;65.98;101032.45;1765044;79;21025;-91
2023/01/06 16:50:53;;;;;;;2.85;2.05;;;;;;;-1.08;66.02;101041.05;1778225;79;21003;-93
2023/01/06 16:53:32;;;;;;;5.40;2.40;;;;;;;-1.12;66.33;101043.22;1744189;79;20928;-90
2023/01/06 16:55:59;;;;;;;5.30;2.65;;;;;;;-1.19;66.12;101050.98;1742864;79;20986;-90
2023/01/06 16:58:29;;;;;;;2.27;2.08;;;;;;;-1.31;66.68;101049.33;1744272;79;21142;-90
2023/01/06 17:00:59;;;;;;;3.52;2.12;;;;;;;-1.34;67.58;101051.90;1751440;80;21034;-90
2023/01/06 17:03:30;;;;;;;5.87;1.80;;;;;;;-1.35;67.57;101063.06;1758271;79;21006;-88
2023/01/06 17:05:57;;;;;;;5.35;3.22;;;;;;;-1.31;67.64;101062.20;1770919;79;20946;-90
2023/01/06 17:08:33;;;;;;;3.95;2.42;;;;;;;-1.30;67.11;101054.89;1768489;80;21031;-91
2023/01/06 17:11:01;;;;;;;3.92;2.35;;;;;;;-1.34;66.43;101054.47;1758558;79;21245;-90
2023/01/06 17:13:35;;;;;;;3.17;2.17;;;;;;;-1.47;65.57;101064.82;1748953;79;21077;-89
2023/01/06 17:16:17;;;;;;;4.08;2.67;;;;;;;-1.56;65.80;101080.69;1750733;79;20988;-93
2023/01/06 17:19:04;;;;;;;3.98;2.95;;;;;;;-1.63;65.87;101095.72;1772475;78;21004;-89
2023/01/06 17:21:37;;;;;;;3.20;2.27;;;;;;;-1.70;65.47;101097.45;1776303;78;20963;-92
2023/01/06 17:24:22;;;;;;;5.58;3.37;;;;;;;-1.81;64.76;101110.74;1773092;79;21119;-91
2023/01/06 17:27:01;;;;;;;3.15;2.40;;;;;;;-1.88;65.22;101113.75;1778240;80;20989;-93
2023/01/06 17:29:31;;;;;;;9.40;2.80;;;;;;;-1.98;65.09;101103.03;1772800;80;20910;-91
2023/01/06 17:32:03;;;;;;;3.83;2.33;;;;;;;-2.09;65.25;101118.05;1741713;80;20863;-90
2023/01/06 17:34:34;;;;;;;4.72;2.40;;;;;;;-2.16;64.94;101121.45;1753279;80;20926;-91
2023/01/06 17:37:12;;;;;;;4.00;2.80;;;;;;;-2.27;64.84;101130.86;1777919;80;21285;-92
2023/01/06 17:39:41;;;;;;;4.25;2.45;;;;;;;-2.38;64.62;101135.13;1753261;79;21478;-90
2023/01/06 17:42:31;;;;;;;3.65;2.90;;;;;;;-2.48;64.82;101135.98;1789065;79;20964;-93
2023/01/06 17:44:58;;;;;;;5.17;3.70;;;;;;;-2.54;65.32;101145.80;1766843;79;20898;-91
2023/01/06 17:47:35;;;;;;;3.00;2.67;;;;;;;-2.63;65.73;101149.20;1776234;79;20921;-92
2023/01/06 17:50:26;;;;;;;5.25;2.52;;;;;;;-2.65;65.55;101161.61;1773158;80;21167;-92
2023/01/06 17:56:22;;;;;;;3.12;2.60;;;;;;;-2.79;66.07;101162.42;1719532;82;20903;-92
2023/01/06 17:58:48;;;;;;;5.80;2.92;;;;;;;-2.82;66.27;101171.84;1721802;81;21506;-90
2023/01/06 18:01:30;;;;;;;5.15;2.83;;;;;;;-2.83;66.52;101174.80;1710683;82;20932;-93
2023/01/06 18:03:59;;;;;;;3.22;2.60;;;;;;;-2.85;66.60;101175.22;1717347;81;20969;-92
2023/01/06 18:06:36;;;;;;;6.90;3.20;;;;;;;-2.87;67.02;101186.34;1716244;81;21013;-92
2023/01/06 18:09:17;;;;;;;9.13;3.52;;;;;;;-2.91;66.79;101182.92;1714774;81;21016;-92
2023/01/06 18:11:51;;;;;;;5.97;3.47;;;;;;;-3.03;66.80;101181.13;1719213;82;20901;-91
2023/01/06 18:14:33;;;;;;;5.08;3.50;;;;;;;-3.08;67.10;101198.22;1727014;81;20982;-92
2023/01/06 18:17:26;;;;;;;4.90;3.10;;;;;;;-3.18;67.09;101197.33;1710128;82;22130;-92
2023/01/06 18:19:59;;;;;;;7.03;3.40;;;;;;;-3.26;67.44;101195.56;1687233;83;20939;-91
2023/01/06 18:22:29;;;;;;;6.58;3.85;;;;;;;-3.30;67.32;101206.21;1651345;83;20865;-92
2023/01/06 18:24:58;;;;;;;4.75;3.50;;;;;;;-3.32;67.49;101204.48;1707982;81;21065;-92
2023/01/06 18:27:37;;;;;;;5.42;3.50;;;;;;;-3.32;67.29;101209.62;1664657;82;20855;-92
2023/01/06 18:30:30;;;;;;;9.30;3.62;;;;;;;-3.43;67.52;101210.39;1700095;82;20975;-91
2023/01/06 18:33:14;;;;;;;4.28;2.80;;;;;;;-3.56;67.95;101226.13;1658417;80;21058;31
2023/01/06 18:35:51;;;;;;;5.90;3.77;;;;;;;-3.57;68.38;101231.23;1651019;85;21041;-91
2023/01/06 18:41:43;;;;;;;8.83;4.42;;;;;;;-3.59;69.23;101230.36;1710051;81;21006;-90
2023/01/06 18:48:08;;;;;;;5.55;3.58;;;;;;;-3.59;69.44;101236.77;1706421;78;21718;-92
2023/01/06 18:50:52;;;;;;;10.53;4.12;;;;;;;-3.66;69.33;101249.96;1662780;80;21450;-91
2023/01/06 18:53:53;;;;;;;10.32;4.42;;;;;;;-3.63;69.69;101246.56;1632329;82;21525;31
2023/01/06 19:12:39;;;;;;;15.25;4.10;;;;;;;-4.06;70.08;101288.01;1546043;88;21002;-91
2023/01/06 19:15:26;;;;;;;8.38;4.03;;;;;;;-4.09;70.16;101298.63;1551848;89;21158;-92
2023/01/06 19:17:54;;;;;;;7.75;4.20;;;;;;;-4.11;70.23;101302.88;1537259;88;21068;-91
2023/01/06 19:20:36;;;;;;;7.25;4.00;;;;;;;-4.17;70.62;101312.64;1508186;90;21098;-91
2023/01/06 19:23:24;;;;;;;8.45;4.47;;;;;;;-4.22;70.67;101316.86;1446920;94;20973;-91
2023/01/06 19:26:08;;;;;;;5.10;3.50;;;;;;;-4.25;70.92;101324.48;1416303;98;21165;-92
2023/01/06 19:28:42;;;;;;;6.47;3.67;;;;;;;-4.26;71.00;101321.50;1455198;94;21241;-92
2023/01/06 19:31:20;;;;;;;5.50;3.30;;;;;;;-4.29;70.87;101332.57;1418590;99;21122;-92
2023/01/06 19:33:59;;;;;;;5.55;3.65;;;;;;;-4.34;71.07;101341.87;1431543;98;21649;-92
2023/01/06 19:36:56;;;;;;;4.97;3.70;;;;;;;-4.38;71.07;101338.43;1427396;97;21046;-92
2023/01/06 19:42:30;;;;;;;6.33;3.37;;;;;;;-4.43;70.84;101331.52;1363040;102;21210;-93
2023/01/06 19:45:14;;;;;;;5.83;4.12;;;;;;;-4.46;71.04;101345.56;1362894;99;21798;-93
2023/01/06 19:47:44;;;;;;;5.03;3.12;;;;;;;-4.45;70.67;101351.11;1371699;103;21146;-93
2023/01/06 19:50:24;;;;;;;8.18;4.53;;;;;;;-4.49;70.41;101353.19;1380847;100;21075;-93
2023/01/06 19:56:22;;;;;;;7.72;3.72;;;;;;;-4.51;70.50;101371.10;1374309;102;21139;-90
2023/01/06 19:58:59;;;;;;;5.85;3.72;;;;;;;-4.53;70.58;101383.02;1397088;100;21075;-91
2023/01/06 20:01:30;;;;;;;6.45;4.05;;;;;;;-4.56;70.29;101379.54;1406104;100;21041;-92
2023/01/06 20:04:00;;;;;;;9.35;4.60;;;;;;;-4.60;70.61;101384.62;1404287;99;21048;-92
2023/01/06 20:06:28;;;;;;;8.90;4.80;;;;;;;-4.57;70.76;101392.77;1431869;98;21109;-92
2023/01/06 20:08:55;;;;;;;9.03;4.35;;;;;;;-4.53;70.80;101397.52;1436461;98;21209;-93
2023/01/06 20:11:23;;;;;;;7.22;4.00;;;;;;;-4.54;70.71;101402.17;1447598;93;20954;-91
2023/01/06 20:13:51;;;;;;;8.25;4.22;;;;;;;-4.59;70.62;101414.91;1447759;98;21049;-90
2023/01/06 20:16:22;;;;;;;7.65;4.40;;;;;;;-4.62;70.79;101413.59;1431040;98;21062;-92
2023/01/06 20:18:57;;;;;;;7.35;4.03;;;;;;;-4.62;70.81;101422.55;1440709;94;26745;-93
2023/01/06 20:21:26;;;;;;;8.70;5.28;;;;;;;-4.64;70.78;101416.55;1493083;92;21129;-93
2023/01/06 20:23:59;;;;;;;10.28;5.03;;;;;;;-4.64;70.72;101425.50;1495762;92;21156;-90
2023/01/06 20:26:27;;;;;;;6.85;3.80;;;;;;;-4.65;70.84;101425.90;1550148;89;21057;-90
2023/01/06 20:28:56;;;;;;;7.65;3.67;;;;;;;-4.64;70.85;101433.19;1564287;90;21068;-93
2023/01/06 20:31:23;;;;;;;7.33;5.17;;;;;;;-4.65;70.77;101437.84;1637290;85;21136;-91
2023/01/06 20:33:53;;;;;;;7.17;4.10;;;;;;;-4.69;70.76;101438.23;1635709;85;21198;-91
2023/01/06 20:36:21;;;;;;;9.15;5.03;;;;;;;-4.70;70.70;101445.45;1642817;85;20880;-91
2023/01/06 20:38:48;;;;;;;8.40;4.75;;;;;;;-4.72;70.35;101434.75;1609556;86;20992;-92
2023/01/06 20:41:14;;;;;;;9.93;5.37;;;;;;;-4.80;70.25;101427.82;1629312;85;21455;-92
2023/01/06 20:43:41;;;;;;;6.92;4.92;;;;;;;-4.84;70.48;101437.98;1627334;85;20948;-93
2023/01/06 20:46:08;;;;;;;8.38;5.28;;;;;;;-4.89;70.68;101444.70;1637126;85;21235;-91
2023/01/06 20:48:34;;;;;;;6.97;4.55;;;;;;;-4.87;70.80;101448.14;1650152;85;22253;-92
2023/01/06 20:51:01;;;;;;;11.65;5.45;;;;;;;-4.89;71.05;101446.86;1642041;85;21083;-89
2023/01/06 20:53:28;;;;;;;8.63;4.95;;;;;;;-4.90;71.05;101453.22;1641013;85;20990;-92
2023/01/06 20:55:54;;;;;;;9.40;4.75;;;;;;;-4.92;70.87;101449.77;1646324;84;21888;-89
2023/01/06 20:58:21;;;;;;;7.40;4.92;;;;;;;-4.98;70.82;101457.34;1676800;82;21181;-92
2023/01/06 21:00:47;;;;;;;9.65;5.28;;;;;;;-5.06;70.73;101460.63;1749127;79;21135;-92
2023/01/06 21:03:14;;;;;;;8.08;4.78;;;;;;;-5.21;70.86;101457.80;1739696;80;21084;-91
2023/01/06 21:05:41;;;;;;;12.25;5.60;;;;;;;-5.29;71.31;101458.06;1750170;80;21054;-91
2023/01/06 21:08:08;;;;;;;8.78;5.30;;;;;;;-5.32;71.58;101466.54;1748686;79;20958;-91
2023/01/06 21:10:37;;;;;;;12.28;4.70;;;;;;;-5.33;71.60;101468.66;1759451;80;21175;-91
2023/01/06 21:13:04;;;;;;;8.45;5.25;;;;;;;-5.36;71.14;101476.68;1771776;77;20939;-90
2023/01/06 21:15:31;;;;;;;6.55;4.42;;;;;;;-5.36;71.04;101488.19;1760113;78;21023;-88
2023/01/06 21:17:59;;;;;;;9.63;5.60;;;;;;;-5.34;70.67;101495.05;1764416;78;21313;-90
2023/01/06 21:20:25;;;;;;;9.33;5.28;;;;;;;-5.35;69.68;101486.95;1778507;78;20823;-93
2023/01/06 21:22:52;;;;;;;6.67;4.55;;;;;;;-5.45;68.47;101489.75;1769081;78;21213;-92
2023/01/06 21:25:18;;;;;;;10.20;5.17;;;;;;;-5.56;68.20;101490.34;1769686;78;20899;-89
2023/01/06 21:27:47;;;;;;;10.38;4.92;;;;;;;-5.68;68.03;101487.14;1764371;78;21119;-90
2023/01/06 21:30:15;;;;;;;7.83;5.12;;;;;;;-5.80;68.20;101491.59;1747798;78;22008;-91
2023/01/06 21:32:42;;;;;;;11.60;5.58;;;;;;;-5.83;68.17;101499.16;1768285;77;21116;-92
2023/01/06 21:35:09;;;;;;;8.13;5.28;;;;;;;-5.90;68.22;101505.83;1736297;79;21554;-91
2023/01/06 21:37:36;;;;;;;6.17;4.00;;;;;;;-5.95;68.21;101509.16;1737063;80;21065;-92
2023/01/06 21:40:07;;;;;;;7.00;4.35;;;;;;;-6.02;68.48;101518.38;1751421;80;21025;-92
2023/01/06 21:45:21;;;;;;;8.43;5.37;;;;;;;-6.13;68.69;101509.62;1756487;80;20963;-89
2023/01/06 21:47:48;;;;;;;8.85;4.85;;;;;;;-6.24;68.40;101518.72;1746637;80;21520;-88
2023/01/06 21:50:14;;;;;;;11.53;6.42;;;;;;;-6.31;68.93;101513.47;1758068;80;20910;-90
2023/01/06 21:52:43;;;;;;;8.93;5.62;;;;;;;-6.32;69.21;101520.66;1755466;79;20894;-89
2023/01/06 21:55:10;;;;;;;6.45;4.22;;;;;;;-6.31;69.51;101518.58;1725401;80;20939;-89
2023/01/06 21:57:36;;;;;;;7.80;4.35;;;;;;;-6.30;69.27;101517.73;1757157;80;20923;-89
2023/01/06 22:00:09;;;;;;;8.58;5.28;;;;;;;-6.35;69.20;101516.77;1701492;82;21094;-91
2023/01/06 22:02:44;;;;;;;11.65;5.83;;;;;;;-6.32;69.13;101528.31;1761103;78;20986;-91
2023/01/06 22:05:11;;;;;;;8.85;4.90;;;;;;;-6.38;68.93;101529.86;1768171;79;20879;-90
2023/01/06 22:07:44;;;;;;;8.03;4.78;;;;;;;-6.44;69.41;101531.02;1762267;78;20926;-91
2023/01/06 22:10:13;;;;;;;9.30;5.55;;;;;;;-6.43;69.65;101539.95;1777940;78;20990;-92
2023/01/06 22:12:39;;;;;;;10.40;5.95;;;;;;;-6.43;69.52;101532.72;1785841;78;21174;-89
2023/01/06 22:15:07;;;;;;;7.37;5.28;;;;;;;-6.41;69.56;101538.73;1769151;78;21038;-91
2023/01/06 22:17:34;;;;;;;9.08;4.80;;;;;;;-6.38;69.83;101546.06;1773417;78;21125;-90
2023/01/06 22:20:01;;;;;;;8.05;4.78;;;;;;;-6.31;69.93;101555.58;1765625;78;20971;-90
2023/01/06 22:22:28;;;;;;;9.83;5.87;;;;;;;-6.26;69.83;101556.54;1754198;78;21065;-90
2023/01/06 22:24:56;;;;;;;8.78;5.45;;;;;;;-6.19;69.81;101569.04;1736732;80;20950;-93
2023/01/06 22:27:23;;;;;;;13.53;5.87;;;;;;;-6.13;69.64;101567.06;1767998;78;21398;-92
2023/01/06 22:29:50;;;;;;;7.15;4.70;;;;;;;-6.08;69.57;101569.30;1750460;80;20837;-89
2023/01/06 22:32:18;;;;;;;7.10;5.25;;;;;;;-6.05;69.46;101566.41;1753130;80;20868;-90
2023/01/06 22:34:45;;;;;;;13.90;5.05;;;;;;;-6.01;69.42;101568.60;1756636;79;20816;-90
2023/01/06 22:37:13;;;;;;;9.18;5.08;;;;;;;-5.97;68.94;101569.55;1701244;81;20951;-91
2023/01/06 22:39:42;;;;;;;7.90;5.20;;;;;;;-6.06;68.68;101579.98;1700345;80;21051;-90
2023/01/06 22:42:08;;;;;;;9.58;5.37;;;;;;;-6.17;68.77;101578.87;1721879;80;21014;-90
2023/01/06 22:44:35;;;;;;;11.70;5.35;;;;;;;-6.18;69.09;101582.66;1773293;78;21111;-90
2023/01/06 22:47:04;;;;;;;7.85;5.00;;;;;;;-6.19;69.19;101588.60;1750316;80;21088;-90
2023/01/06 22:49:31;;;;;;;9.25;6.00;;;;;;;-6.20;69.38;101600.90;1773757;78;21296;-91
2023/01/06 22:51:59;;;;;;;8.43;5.08;;;;;;;-6.23;69.36;101600.84;1742435;79;20974;-89
2023/01/06 22:54:25;;;;;;;16.70;7.33;;;;;;;-6.23;69.55;101597.86;1778429;79;20923;-92
2023/01/06 22:56:52;;;;;;;11.90;7.40;;;;;;;-6.19;69.28;101600.09;1742146;80;20927;-90
2023/01/06 22:59:18;;;;;;;11.20;6.12;;;;;;;-6.26;68.74;101594.83;1748786;80;20879;-91
2023/01/06 23:01:45;;;;;;;7.25;5.03;;;;;;;-6.33;69.13;101604.44;1759732;78;21196;-90
2023/01/06 23:04:13;;;;;;;8.53;5.47;;;;;;;-6.35;69.57;101607.36;1766475;78;20890;-89
2023/01/06 23:06:40;;;;;;;11.48;5.90;;;;;;;-6.32;69.59;101608.70;1754898;80;21461;-89
2023/01/06 23:09:07;;;;;;;7.97;5.53;;;;;;;-6.30;69.53;101613.44;1750085;80;21594;-90
2023/01/06 23:11:40;;;;;;;12.40;5.62;;;;;;;-6.24;69.66;101613.16;1749993;80;21060;-90
2023/01/06 23:14:04;;;;;;;10.45;5.72;;;;;;;-6.16;69.65;101619.30;1686973;83;20949;-91
2023/01/06 23:16:36;;;;;;;9.58;6.22;;;;;;;-6.10;68.77;101625.84;1710806;81;20959;-89
2023/01/06 23:19:02;;;;;;;8.93;5.37;;;;;;;-6.07;68.15;101632.28;1679949;82;21026;-92
2023/01/06 23:21:31;;;;;;;8.63;4.97;;;;;;;-6.10;65.84;101630.94;1703434;80;21300;-90
2023/01/06 23:23:58;;;;;;;8.43;6.40;;;;;;;-6.25;65.14;101644.17;1710054;81;20921;-89
2023/01/06 23:26:35;;;;;;;8.20;4.78;;;;;;;-6.34;65.01;101649.91;1700605;81;21431;-89
2023/01/06 23:29:02;;;;;;;11.48;5.40;;;;;;;-6.41;64.91;101659.52;1734061;80;20982;-90
2023/01/06 23:31:33;;;;;;;10.18;5.83;;;;;;;-6.49;63.49;101660.60;1762532;80;21017;-90
2023/01/06 23:34:03;;;;;;;7.58;4.62;;;;;;;-6.65;62.68;101662.69;1754038;80;20867;-89
2023/01/06 23:36:30;;;;;;;10.95;4.30;;;;;;;-6.79;61.91;101664.86;1697656;82;21539;-90
2023/01/06 23:38:57;;;;;;;8.03;4.72;;;;;;;-6.92;61.94;101673.43;1748079;80;21117;-89
2023/01/06 23:41:28;;;;;;;9.10;4.55;;;;;;;-6.97;62.01;101682.64;1752251;80;20923;-90
2023/01/06 23:43:55;;;;;;;8.43;4.65;;;;;;;-7.05;61.83;101686.64;1757127;79;20951;-90
2023/01/06 23:46:27;;;;;;;8.05;4.85;;;;;;;-7.13;62.02;101689.40;1759055;79;21073;-89
2023/01/06 23:48:54;;;;;;;7.42;4.87;;;;;;;-7.17;62.46;101688.43;1755974;79;20951;-90
2023/01/06 23:51:21;;;;;;;10.13;5.40;;;;;;;-7.17;62.07;101684.61;1746508;79;21149;-87
2023/01/06 23:53:48;;;;;;;8.63;5.58;;;;;;;-7.23;61.17;101687.38;1739312;75;21180;-91
2023/01/06 23:56:22;;;;;;;8.28;4.10;;;;;;;-7.31;61.49;101701.19;1804321;76;20975;-88
2023/01/06 23:58:51;;;;;;;7.47;4.97;;;;;;;-7.31;61.54;101701.19;1802710;76;20940;-88
